createdAt,value
2023-01-11T00:02:24.312Z,100703.06
2023-01-11T00:04:52.059Z,100715.50
2023-01-11T00:07:19.783Z,100709.28
2023-01-11T00:09:47.963Z,100712.81
2023-01-11T00:12:17.067Z,100711.06
2023-01-11T00:14:44.936Z,100705.72
2023-01-11T00:17:12.647Z,100691.53
2023-01-11T00:19:40.419Z,100695.94
2023-01-11T00:22:08.189Z,100697.72
2023-01-11T00:24:35.861Z,100687.03
2023-01-11T00:27:03.548Z,100687.03
2023-01-11T00:29:32.594Z,100685.28
2023-01-11T00:32:00.305Z,100677.28
2023-01-11T00:34:29.002Z,100677.28
2023-01-11T00:36:56.771Z,100681.69
2023-01-11T00:39:24.478Z,100685.25
2023-01-11T00:42:09.623Z,100669.25
2023-01-11T00:44:56.251Z,100664.81
2023-01-11T00:47:41.547Z,100655.03
2023-01-11T00:50:10.420Z,100659.47
2023-01-11T00:52:38.102Z,100656.81
2023-01-11T00:55:06.738Z,100651.47
2023-01-11T00:57:34.483Z,100650.56
2023-01-11T01:00:03.914Z,100647.00
2023-01-11T01:02:33.833Z,100639.00
2023-01-11T01:05:01.678Z,100647.00
2023-01-11T01:07:29.393Z,100658.50
2023-01-11T01:09:57.088Z,100645.19
2023-01-11T01:12:38.661Z,100650.50
2023-01-11T01:15:09.141Z,100641.63
2023-01-11T01:17:36.860Z,100652.28
2023-01-11T01:20:05.220Z,100641.59
2023-01-11T01:22:33.173Z,100654.91
2023-01-11T01:25:00.836Z,100642.44
2023-01-11T01:27:28.550Z,100643.34
2023-01-11T01:29:56.288Z,100638.91
2023-01-11T01:32:25.387Z,100639.75
2023-01-11T01:34:53.117Z,100629.06
2023-01-11T01:37:20.752Z,100631.75
2023-01-11T01:39:48.429Z,100623.75
2023-01-11T01:42:17.306Z,100623.75
2023-01-11T01:44:58.226Z,100630.81
2023-01-11T01:47:33.067Z,100630.81
2023-01-11T01:50:04.262Z,100622.84
2023-01-11T01:52:34.703Z,100615.72
2023-01-11T01:55:06.663Z,100611.25
2023-01-11T01:57:38.649Z,100620.16
2023-01-11T02:00:09.299Z,100621.94
2023-01-11T02:02:40.062Z,100613.06
2023-01-11T02:05:09.619Z,100614.81
2023-01-11T02:07:40.578Z,100613.94
2023-01-11T02:10:13.872Z,100613.94
2023-01-11T02:12:46.042Z,100613.09
2023-01-11T02:15:14.410Z,100614.84
2023-01-11T02:17:43.411Z,100606.88
2023-01-11T02:20:47.102Z,100596.22
2023-01-11T02:24:00.931Z,100595.31
2023-01-11T02:27:19.750Z,100595.28
2023-01-11T02:29:59.146Z,100581.97
2023-01-11T02:32:33.365Z,100578.44
2023-01-11T02:35:13.972Z,100589.97
2023-01-11T02:37:51.926Z,100584.63
2023-01-11T02:40:25.611Z,100579.28
2023-01-11T02:43:15.331Z,100580.16
2023-01-11T02:45:53.552Z,100578.34
2023-01-11T02:48:29.515Z,100587.22
2023-01-11T02:51:05.341Z,100573.88
2023-01-11T02:53:38.775Z,100570.34
2023-01-11T02:56:11.248Z,100573.00
2023-01-11T02:58:40.722Z,100576.56
2023-01-11T03:01:10.731Z,100569.47
2023-01-11T03:03:38.390Z,100567.66
2023-01-11T03:06:12.927Z,100570.34
2023-01-11T03:09:13.747Z,100587.22
2023-01-11T03:12:09.753Z,100560.56
2023-01-11T03:14:47.502Z,100562.34
2023-01-11T03:17:32.320Z,100561.47
2023-01-11T03:20:08.524Z,100562.34
2023-01-11T03:22:45.002Z,100564.13
2023-01-11T03:25:22.161Z,100560.56
2023-01-11T03:27:56.572Z,100565.91
2023-01-11T03:30:30.815Z,100559.66
2023-01-11T03:33:04.777Z,100557.91
2023-01-11T03:35:40.762Z,100570.31
2023-01-11T03:38:16.449Z,100564.13
2023-01-11T03:40:49.270Z,100565.88
2023-01-11T03:43:20.361Z,100558.75
2023-01-11T03:45:53.388Z,100556.97
2023-01-11T03:48:26.540Z,100550.69
2023-01-11T03:50:56.351Z,100547.16
2023-01-11T03:53:26.608Z,100547.13
2023-01-11T03:55:57.076Z,100545.38
2023-01-11T03:58:26.901Z,100543.56
2023-01-11T04:00:56.077Z,100548.91
2023-01-11T04:03:27.160Z,100539.09
2023-01-11T04:06:00.376Z,100531.06
2023-01-11T04:08:28.569Z,100530.19
2023-01-11T04:10:56.997Z,100537.28
2023-01-11T04:13:24.757Z,100538.16
2023-01-11T04:15:53.845Z,100539.94
2023-01-11T04:18:21.528Z,100528.34
2023-01-11T04:20:50.618Z,100534.53
2023-01-11T04:23:18.274Z,100528.28
2023-01-11T04:25:46.956Z,100530.06
2023-01-11T04:28:14.718Z,100525.56
2023-01-11T04:30:42.458Z,100535.38
2023-01-11T04:33:13.087Z,100523.78
2023-01-11T04:35:40.935Z,100531.75
2023-01-11T04:38:09.974Z,100527.28
2023-01-11T04:40:37.631Z,100520.16
2023-01-11T04:43:04.335Z,100521.00
2023-01-11T04:45:32.302Z,100528.97
2023-01-11T04:48:00.176Z,100524.53
2023-01-11T04:50:28.677Z,100515.59
2023-01-11T04:52:56.456Z,100522.69
2023-01-11T04:55:25.556Z,100524.44
2023-01-11T04:57:53.241Z,100527.94
2023-01-11T05:00:21.481Z,100534.13
2023-01-11T05:02:49.158Z,100521.63
2023-01-11T05:05:16.825Z,100523.38
2023-01-11T05:07:44.449Z,100524.22
2023-01-11T05:10:12.662Z,100528.59
2023-01-11T05:12:41.683Z,100525.94
2023-01-11T05:15:10.574Z,100524.13
2023-01-11T05:17:38.265Z,100528.56
2023-01-11T05:20:08.224Z,100523.22
2023-01-11T05:22:35.929Z,100526.72
2023-01-11T05:25:03.641Z,100524.00
2023-01-11T05:27:31.333Z,100526.66
2023-01-11T05:30:00.461Z,100533.78
2023-01-11T05:32:28.173Z,100531.09
2023-01-11T05:34:55.920Z,100522.22
2023-01-11T05:37:23.660Z,100514.16
2023-01-11T05:39:51.373Z,100525.72
2023-01-11T05:42:19.132Z,100524.78
2023-01-11T05:45:04.344Z,100522.06
2023-01-11T05:47:33.492Z,100528.31
2023-01-11T05:50:01.240Z,100522.88
2023-01-11T05:52:29.089Z,100525.44
2023-01-11T05:54:56.782Z,100523.59
2023-01-11T05:57:24.445Z,100524.44
2023-01-11T05:59:52.153Z,100514.63
2023-01-11T06:02:19.977Z,100522.63
2023-01-11T06:04:49.157Z,100522.56
2023-01-11T06:07:16.916Z,100522.56
2023-01-11T06:09:44.669Z,100517.16
2023-01-11T06:12:12.366Z,100497.56
2023-01-11T06:14:40.113Z,100514.44
2023-01-11T06:17:07.838Z,100509.06
2023-01-11T06:19:35.687Z,100530.31
2023-01-11T06:22:04.784Z,100525.84
2023-01-11T06:24:32.510Z,100525.78
2023-01-11T06:27:00.203Z,100525.81
2023-01-11T06:29:27.886Z,100522.22
2023-01-11T06:31:55.553Z,100526.69
2023-01-11T06:34:23.264Z,100526.63
2023-01-11T06:36:50.997Z,100540.84
2023-01-11T06:39:20.235Z,100543.53
2023-01-11T06:41:47.938Z,100541.78
2023-01-11T06:44:15.595Z,100539.97
2023-01-11T06:46:43.328Z,100536.41
2023-01-11T06:49:11.925Z,100545.34
2023-01-11T06:51:42.657Z,100549.75
2023-01-11T06:54:10.368Z,100556.91
2023-01-11T06:56:39.485Z,100556.00
2023-01-11T06:59:07.255Z,100561.34
2023-01-11T07:01:35.141Z,100559.56
2023-01-11T07:04:02.897Z,100563.06
2023-01-11T07:06:32.018Z,100577.34
2023-01-11T07:08:59.715Z,100580.03
2023-01-11T07:11:27.415Z,100582.69
2023-01-11T07:13:56.547Z,100587.13
2023-01-11T07:16:24.282Z,100585.31
2023-01-11T07:18:51.939Z,100592.44
2023-01-11T07:21:19.626Z,100593.34
2023-01-11T07:23:48.775Z,100599.53
2023-01-11T07:26:17.229Z,100605.78
2023-01-11T07:28:45.355Z,100604.88
2023-01-11T07:31:14.545Z,100604.88
2023-01-11T07:33:42.248Z,100599.50
2023-01-11T07:36:10.262Z,100600.44
2023-01-11T07:38:37.947Z,100601.31
2023-01-11T07:41:25.802Z,100603.97
2023-01-11T07:43:52.678Z,100609.31
2023-01-11T07:46:21.837Z,100615.56
2023-01-11T07:48:49.773Z,100610.19
2023-01-11T07:51:20.405Z,100608.41
2023-01-11T07:53:48.421Z,100609.28
2023-01-11T07:56:16.208Z,100628.00
2023-01-11T07:58:43.930Z,100631.56
2023-01-11T08:01:11.993Z,100643.13
2023-01-11T08:03:41.157Z,100630.66
2023-01-11T08:06:09.168Z,100638.69
2023-01-11T08:08:36.850Z,100632.47
2023-01-11T08:11:22.031Z,100652.03
2023-01-11T08:14:07.361Z,100658.28
2023-01-11T08:16:35.152Z,100649.38
2023-01-11T08:19:04.296Z,100646.66
2023-01-11T08:21:32.280Z,100658.28
2023-01-11T08:24:00.478Z,100669.91
2023-01-11T08:26:28.690Z,100680.69
2023-01-11T08:28:56.627Z,100679.00
2023-01-11T08:31:24.631Z,100701.25
2023-01-11T08:33:52.863Z,100702.19
2023-01-11T08:36:24.362Z,100704.00
2023-01-11T08:38:55.347Z,100705.78
2023-01-11T08:41:26.558Z,100722.72
2023-01-11T08:43:54.714Z,100732.47
2023-01-11T08:46:22.517Z,100728.97
2023-01-11T08:48:50.254Z,100737.88
2023-01-11T08:51:18.503Z,100730.75
2023-01-11T08:53:47.558Z,100734.25
2023-01-11T08:56:15.346Z,100729.81
2023-01-11T08:58:43.051Z,100736.94
2023-01-11T09:01:12.090Z,100740.50
2023-01-11T09:03:39.878Z,100744.97
2023-01-11T09:06:08.355Z,100746.75
2023-01-11T09:08:36.093Z,100749.41
2023-01-11T09:11:25.239Z,100760.94
2023-01-11T09:13:52.887Z,100768.97
2023-01-11T09:16:20.591Z,100775.22
2023-01-11T09:18:48.334Z,100789.50
2023-01-11T09:21:16.085Z,100781.44
2023-01-11T09:23:45.166Z,100783.28
2023-01-11T09:26:15.081Z,100795.75
2023-01-11T09:28:43.169Z,100789.56
2023-01-11T09:31:10.933Z,100795.78
2023-01-11T09:33:39.245Z,100802.91
2023-01-11T09:36:07.833Z,100790.47
2023-01-11T09:38:37.925Z,100795.81
2023-01-11T09:41:23.211Z,100796.78
2023-01-11T09:44:04.545Z,100811.03
2023-01-11T09:46:33.813Z,100804.78
2023-01-11T09:49:03.467Z,100807.47
2023-01-11T09:51:37.441Z,100819.03
2023-01-11T09:54:07.707Z,100819.94
2023-01-11T09:56:42.404Z,100823.56
2023-01-11T09:59:20.884Z,100836.00
2023-01-11T10:01:54.402Z,100843.09
2023-01-11T10:04:41.704Z,100849.28
2023-01-11T10:07:23.034Z,100849.28
2023-01-11T10:18:27.479Z,100844.91
2023-01-11T10:19:33.571Z,100853.00
2023-01-11T10:22:00.216Z,100846.69
2023-01-11T10:24:32.938Z,100853.91
2023-01-11T10:27:04.530Z,100854.75
2023-01-11T10:29:46.157Z,100855.66
2023-01-11T10:32:45.623Z,100841.34
2023-01-11T10:35:41.553Z,100847.56
2023-01-11T10:38:31.548Z,100847.53
2023-01-11T10:41:08.419Z,100858.22
2023-01-11T10:43:41.451Z,100862.72
2023-01-11T10:46:14.112Z,100859.13
2023-01-11T10:48:45.275Z,100854.69
2023-01-11T10:51:24.803Z,100855.53
2023-01-11T10:54:02.827Z,100861.78
2023-01-11T10:57:03.584Z,100864.38
2023-01-11T10:59:50.916Z,100876.88
2023-01-11T11:02:34.177Z,100873.28
2023-01-11T11:05:14.681Z,100887.53
2023-01-11T11:07:51.945Z,100888.38
2023-01-11T11:10:24.911Z,100887.50
2023-01-11T11:13:03.541Z,100871.53
2023-01-11T11:15:39.154Z,100883.13
2023-01-11T11:18:06.913Z,100879.50
2023-01-11T11:20:36.218Z,100870.53
2023-01-11T11:23:04.024Z,100871.41
2023-01-11T11:25:34.076Z,100874.00
2023-01-11T11:28:04.702Z,100871.34
2023-01-11T11:30:37.897Z,100872.13
2023-01-11T11:33:09.290Z,100880.09
2023-01-11T11:35:42.037Z,100884.63
2023-01-11T11:38:29.954Z,100894.44
2023-01-11T11:40:59.746Z,100893.59
2023-01-11T11:43:28.680Z,100901.66
2023-01-11T11:45:58.840Z,100904.47
2023-01-11T11:48:29.043Z,100893.88
2023-01-11T11:51:00.337Z,100894.81
2023-01-11T11:53:43.058Z,100889.50
2023-01-11T11:56:18.856Z,100895.78
2023-01-11T11:58:47.793Z,100890.44
2023-01-11T12:01:26.796Z,100893.97
2023-01-11T12:03:58.514Z,100887.69
2023-01-11T12:06:29.537Z,100886.75
2023-01-11T12:08:59.265Z,100877.75
2023-01-11T12:11:32.831Z,100886.56
2023-01-11T12:14:05.180Z,100891.03
2023-01-11T12:16:36.917Z,100888.22
2023-01-11T12:19:04.717Z,100889.09
2023-01-11T12:21:33.811Z,100889.97
2023-01-11T12:24:19.149Z,100891.78
2023-01-11T12:26:58.990Z,100898.00
2023-01-11T12:29:41.328Z,100902.47
2023-01-11T12:32:21.372Z,100893.50
2023-01-11T12:35:05.872Z,100900.66
2023-01-11T12:38:05.369Z,100903.31
2023-01-11T12:40:41.829Z,100900.69
2023-01-11T12:43:25.328Z,100888.19
2023-01-11T12:46:02.188Z,100898.00
2023-01-11T12:48:41.775Z,100890.88
2023-01-11T12:51:23.778Z,100896.25
2023-01-11T12:54:06.276Z,100898.03
2023-01-11T12:56:51.072Z,100902.47
2023-01-11T12:59:33.530Z,100912.38
2023-01-11T13:02:14.099Z,100908.81
2023-01-11T13:05:00.042Z,100915.91
2023-01-11T13:07:42.309Z,100923.91
2023-01-11T13:10:44.323Z,100928.31
2023-01-11T13:13:17.083Z,100922.97
2023-01-11T13:15:53.642Z,100931.94
2023-01-11T13:18:29.925Z,100939.94
2023-01-11T13:21:02.866Z,100937.22
2023-01-11T13:23:41.906Z,100943.56
2023-01-11T13:26:20.738Z,100949.75
2023-01-11T13:28:54.234Z,100948.84
2023-01-11T13:31:24.030Z,100943.47
2023-01-11T13:33:57.830Z,100941.66
2023-01-11T13:36:31.355Z,100945.31
2023-01-11T13:39:04.227Z,100932.84
2023-01-11T13:41:39.087Z,100932.84
2023-01-11T13:44:13.903Z,100934.59
2023-01-11T13:46:52.687Z,100940.78
2023-01-11T13:49:35.531Z,100944.34
2023-01-11T13:52:11.971Z,100947.00
2023-01-11T13:54:47.311Z,100945.25
2023-01-11T13:57:25.453Z,100947.91
2023-01-11T13:59:59.356Z,100939.91
2023-01-11T14:02:38.338Z,100951.53
2023-01-11T14:05:14.766Z,100949.75
2023-01-11T14:08:00.699Z,100957.75
2023-01-11T14:10:40.727Z,100958.72
2023-01-11T14:13:41.796Z,100966.81
2023-01-11T14:16:20.854Z,100971.22
2023-01-11T14:18:55.199Z,100976.59
2023-01-11T14:21:29.600Z,100966.81
2023-01-11T14:23:58.256Z,100972.13
2023-01-11T14:26:52.506Z,100974.78
2023-01-11T14:29:41.479Z,100988.13
2023-01-11T14:32:23.298Z,100992.56
2023-01-11T14:35:17.203Z,100979.19
2023-01-11T14:38:23.922Z,100988.09
2023-01-11T14:41:15.140Z,100996.25
2023-01-11T14:44:01.138Z,100994.47
2023-01-11T14:46:58.914Z,100990.94
2023-01-11T14:49:49.226Z,100990.03
2023-01-11T14:52:34.546Z,100989.09
2023-01-11T14:55:15.351Z,100990.84
2023-01-11T14:57:44.808Z,100989.06
2023-01-11T15:00:50.965Z,100981.09
2023-01-11T15:03:48.152Z,100981.13
2023-01-11T15:06:20.297Z,100974.91
2023-01-11T15:08:50.896Z,100984.78
2023-01-11T15:11:45.469Z,100985.75
2023-01-11T15:14:29.631Z,100995.63
2023-01-11T15:17:18.534Z,100991.22
2023-01-11T15:19:50.127Z,100991.22
2023-01-11T15:22:25.473Z,101003.69
2023-01-11T15:24:59.924Z,100995.72
2023-01-11T15:27:32.907Z,100999.28
2023-01-11T15:30:01.322Z,100997.50
2023-01-11T15:32:31.306Z,101009.13
2023-01-11T15:35:30.524Z,101018.06
2023-01-11T15:38:05.494Z,101012.75
2023-01-11T15:40:37.985Z,101016.31
2023-01-11T15:43:29.707Z,101017.25
2023-01-11T15:46:51.328Z,101018.16
2023-01-11T15:50:01.447Z,101014.59
2023-01-11T15:53:21.217Z,101007.50
2023-01-11T15:56:24.422Z,101009.31
2023-01-11T15:59:20.865Z,101005.75
2023-01-11T16:02:22.131Z,101010.19
2023-01-11T16:04:52.696Z,101010.19
2023-01-11T16:07:29.360Z,101007.53
2023-01-11T16:10:41.727Z,101013.75
2023-01-11T16:13:36.719Z,101013.75
2023-01-11T16:16:12.238Z,101012.91
2023-01-11T16:18:43.883Z,101018.22
2023-01-11T16:21:19.486Z,101028.94
2023-01-11T16:23:47.489Z,101025.34
2023-01-11T16:26:20.710Z,101034.28
2023-01-11T16:28:52.041Z,101036.94
2023-01-11T16:31:20.497Z,101038.69
2023-01-11T16:33:49.835Z,101041.38
2023-01-11T16:36:20.983Z,101033.38
2023-01-11T16:39:01.599Z,101029.84
2023-01-11T16:41:36.852Z,101032.50
2023-01-11T16:44:09.016Z,101039.63
2023-01-11T16:47:07.696Z,101036.94
2023-01-11T16:49:35.645Z,101029.81
2023-01-11T16:52:40.064Z,101040.50
2023-01-11T16:55:17.325Z,101041.41
2023-01-11T16:57:48.767Z,101039.63
2023-01-11T17:00:25.288Z,101036.09
2023-01-11T17:03:02.949Z,101048.53
2023-01-11T17:05:30.760Z,101058.34
2023-01-11T17:07:58.536Z,101053.00
2023-01-11T17:10:29.271Z,101060.13
2023-01-11T17:13:52.115Z,101068.13
2023-01-11T17:16:24.857Z,101079.69
2023-01-11T17:18:54.448Z,101085.94
2023-01-11T17:21:28.777Z,101092.16
2023-01-11T17:24:00.878Z,101105.50
2023-01-11T17:26:33.797Z,101091.25
2023-01-11T17:29:02.007Z,101087.72
2023-01-11T17:31:34.111Z,101083.25
2023-01-11T17:34:05.338Z,101076.13
2023-01-11T17:36:34.052Z,101072.56
2023-01-11T17:39:03.872Z,101067.25
2023-01-11T17:41:49.867Z,101069.03
2023-01-11T17:44:38.396Z,101067.25
2023-01-11T17:47:09.352Z,101069.94
2023-01-11T17:49:39.034Z,101079.72
2023-01-11T17:52:12.004Z,101078.78
2023-01-11T17:54:39.927Z,101075.25
2023-01-11T17:57:07.972Z,101071.69
2023-01-11T17:59:35.867Z,101075.25
2023-01-11T18:02:12.225Z,101080.59
2023-01-11T18:04:40.909Z,101083.28
2023-01-11T18:07:15.763Z,101081.50
2023-01-11T18:09:47.124Z,101082.34
2023-01-11T18:12:18.321Z,101080.59
2023-01-11T18:14:51.719Z,101081.47
2023-01-11T18:17:36.225Z,101066.38
2023-01-11T18:20:25.866Z,101075.25
2023-01-11T18:23:04.484Z,101069.94
2023-01-11T18:25:35.064Z,101071.69
2023-01-11T18:28:34.083Z,101071.69
2023-01-11T18:31:02.559Z,101072.59
2023-01-11T18:33:34.965Z,101067.25
2023-01-11T18:36:05.322Z,101062.78
2023-01-11T18:38:34.861Z,101046.78
2023-01-11T18:41:26.506Z,101058.38
2023-01-11T18:43:55.496Z,101052.13
2023-01-11T18:46:23.592Z,101061.03
2023-01-11T18:48:53.139Z,101067.25
2023-01-11T18:51:29.209Z,101063.69
2023-01-11T18:53:56.935Z,101063.69
2023-01-11T18:56:24.736Z,101066.34
2023-01-11T18:58:52.565Z,101051.25
2023-01-11T19:01:20.595Z,101053.91
2023-01-11T19:03:48.964Z,101058.34
2023-01-11T19:06:21.163Z,101044.13
2023-01-11T19:08:48.959Z,101054.81
2023-01-11T19:11:17.019Z,101038.81
2023-01-11T19:13:46.720Z,101037.91
2023-01-11T19:16:16.891Z,101039.69
2023-01-11T19:18:45.881Z,101037.00
2023-01-11T19:21:14.254Z,101030.78
2023-01-11T19:23:43.474Z,101049.47
2023-01-11T19:26:11.443Z,101040.56
2023-01-11T19:28:39.369Z,101033.47
2023-01-11T19:31:08.117Z,101037.00
2023-01-11T19:33:36.065Z,101034.34
2023-01-11T19:36:06.803Z,101042.34
2023-01-11T19:38:34.797Z,101042.34
2023-01-11T19:41:07.443Z,101040.56
2023-01-11T19:43:35.481Z,101037.91
2023-01-11T19:46:04.099Z,101038.78
2023-01-11T19:48:32.833Z,101030.78
2023-01-11T19:51:05.593Z,101029.88
2023-01-11T19:53:33.808Z,101021.91
2023-01-11T19:56:03.142Z,101008.53
2023-01-11T19:58:33.391Z,101010.34
2023-01-11T20:01:02.305Z,101010.31
2023-01-11T20:03:30.140Z,101002.28
2023-01-11T20:06:07.635Z,100994.28
2023-01-11T20:08:38.550Z,100972.09
2023-01-11T20:11:07.268Z,100956.97
2023-01-11T20:13:36.623Z,100962.28
2023-01-11T20:16:08.971Z,100965.84
2023-01-11T20:18:36.973Z,100944.47
2023-01-11T20:21:07.839Z,100957.84
2023-01-11T20:23:36.173Z,100953.34
2023-01-11T20:26:08.715Z,100942.69
2023-01-11T20:28:37.733Z,100948.03
2023-01-11T20:31:07.877Z,100938.25
2023-01-11T20:33:35.753Z,100929.34
2023-01-11T20:36:11.136Z,100930.25
2023-01-11T20:38:41.847Z,100948.06
2023-01-11T20:41:10.981Z,100943.59
2023-01-11T20:43:40.917Z,100941.81
2023-01-11T20:46:08.744Z,100934.66
2023-01-11T20:48:36.708Z,100934.66
2023-01-11T20:51:04.861Z,100940.00
2023-01-11T20:53:32.692Z,100934.66
2023-01-11T20:56:00.440Z,100950.66
2023-01-11T20:58:28.210Z,100959.53
2023-01-11T21:01:04.519Z,100959.56
2023-01-11T21:03:32.542Z,100946.19
2023-01-11T21:06:03.039Z,100950.69
2023-01-11T21:08:31.001Z,100935.59
2023-01-11T21:11:05.060Z,100920.47
2023-01-11T21:13:32.979Z,100917.81
2023-01-11T21:16:08.810Z,100924.91
2023-01-11T21:18:37.398Z,100919.59
2023-01-11T21:21:05.733Z,100923.13
2023-01-11T21:23:33.497Z,100914.28
2023-01-11T21:26:01.218Z,100908.94
2023-01-11T21:28:28.967Z,100900.94
2023-01-11T21:31:02.241Z,100904.47
2023-01-11T21:33:31.593Z,100910.72
2023-01-11T21:36:03.227Z,100888.44
2023-01-11T21:38:34.703Z,100883.13
2023-01-11T21:41:06.895Z,100877.78
2023-01-11T21:43:34.853Z,100886.69
2023-01-11T21:46:03.800Z,100869.78
2023-01-11T21:48:32.971Z,100876.00
2023-01-11T21:51:01.169Z,100869.75
2023-01-11T21:53:32.073Z,100872.41
2023-01-11T21:56:03.104Z,100874.22
2023-01-11T21:58:34.350Z,100874.22
2023-01-11T22:01:10.583Z,100879.53
2023-01-11T22:03:42.174Z,100876.84
2023-01-11T22:06:10.562Z,100872.41
2023-01-11T22:08:39.773Z,100877.69
2023-01-11T22:11:14.377Z,100873.25
2023-01-11T22:13:55.145Z,100860.84
2023-01-11T22:16:29.692Z,100871.50
2023-01-11T22:18:59.376Z,100878.63
2023-01-11T22:21:27.522Z,100862.56
2023-01-11T22:23:56.590Z,100847.47
2023-01-11T22:26:25.137Z,100874.19
2023-01-11T22:29:15.145Z,100883.06
2023-01-11T22:31:45.667Z,100881.28
2023-01-11T22:34:16.338Z,100884.00
2023-01-11T22:36:45.306Z,100871.56
2023-01-11T22:39:14.167Z,100891.13
2023-01-11T22:41:42.003Z,100871.56
2023-01-11T22:44:10.838Z,100874.25
2023-01-11T22:46:39.252Z,100892.03
2023-01-11T22:49:07.561Z,100884.00
2023-01-11T22:51:37.059Z,100895.59
2023-01-11T22:54:05.456Z,100902.72
2023-01-11T22:56:33.530Z,100883.16
2023-01-11T22:59:02.013Z,100899.19
2023-01-11T23:01:32.379Z,100896.53
2023-01-11T23:04:00.774Z,100901.00
2023-01-11T23:06:30.219Z,100895.66
2023-01-11T23:09:00.197Z,100898.34
2023-01-11T23:11:47.142Z,100897.47
2023-01-11T23:14:16.923Z,100885.03
2023-01-11T23:16:45.276Z,100903.69
2023-01-11T23:19:14.693Z,100908.13
2023-01-11T23:21:43.573Z,100903.72
2023-01-11T23:24:14.009Z,100898.34
2023-01-11T23:26:41.936Z,100892.16
2023-01-11T23:29:09.651Z,100880.59
2023-01-11T23:31:37.424Z,100892.19
2023-01-11T23:34:06.938Z,100885.94
2023-01-11T23:36:36.538Z,100886.84
2023-01-11T23:39:05.273Z,100888.59
2023-01-11T23:41:51.999Z,100879.72
2023-01-11T23:44:19.847Z,100872.63
2023-01-11T23:47:05.228Z,100865.50
2023-01-11T23:49:33.446Z,100857.53
2023-01-11T23:52:14.090Z,100849.50
2023-01-11T23:54:42.821Z,100875.28
2023-01-11T23:57:12.598Z,100877.06
2023-01-11T23:59:40.455Z,100872.59
